Latest Weather Observations for Tasman Island

IDT60801

Issued at 3:01 pm EST Thursday 2 July 2015 (issued every 30 minutes, with the page automatically refreshed every 10 minutes)

About weather observations | Map of weather stations | Latest weather observations for TAS | Other Formats
Station Details ID: 094155 Name: TASMAN ISLAND Lat: -43.24 Lon: 148.00 Height: 240.0 m
Data from the previous 72 hours. | See also: Recent months at Tasman Island
Date/Time
EST
Temp
°C
App
Temp
°C
Dew
Point
Rel
Hum
%
Delta-T
°C
Wind Press
QNH
hPa
Press
MSL
hPa
Rain
since 9 am
mm
Dir
 
Spd
km/h
Gust
km/h
Spd
kts
Gust
kts
02/03:00pm 6.1 -5.2 1.4 72 1.9 SW 50 83 27 45 1013.4 1013.8 6.0
02/02:35pm 4.9 -5.3 3.2 89 0.7 SW 46 91 25 49 1013.0 1013.4 6.0
02/02:30pm 5.9 -3.6 1.6 74 1.7 SW 41 83 22 45 1012.9 1013.3 6.0
02/02:29pm 5.9 -3.6 1.8 75 1.7 SW 41 83 22 45 1013.0 1013.4 6.0
02/02:28pm 5.9 -3.6 1.8 75 1.7 SW 41 83 22 45 1013.0 1013.4 6.0
02/02:05pm 6.2 -3.8 2.3 76 1.6 SW 44 82 24 44 1012.6 1013.0 6.0
02/02:00pm 6.7 -1.8 1.2 68 2.2 SW 35 78 19 42 1012.5 1012.8 6.0
02/01:58pm 6.7 -1.4 1.2 68 2.2 SW 33 78 18 42 1012.5 1012.8 6.0
02/01:49pm 6.3 -6.2 2.0 74 1.8 SW 57 96 31 52 1012.5 1012.8 6.0
02/01:42pm 6.1 -5.0 2.7 79 1.4 SW 50 91 27 49 1012.3 1012.6 6.0
02/01:30pm 6.6 -4.5 0.3 64 2.5 SW 48 91 26 49 1012.2 1012.5 6.0
02/01:00pm 6.6 -3.4 1.1 68 2.2 SW 43 76 23 41 1011.6 1011.9 6.0
02/12:30pm 6.8 -0.9 2.3 73 1.9 SW 32 69 17 37 1011.4 1011.7 6.0
02/12:13pm 6.2 -2.6 1.1 70 2.1 SW 37 74 20 40 1011.0 1011.3 6.0
02/12:07pm 6.1 -5.7 2.7 79 1.4 SW 54 82 29 44 1011.0 1011.3 6.0
02/12:00pm 5.5 -8.0 3.0 84 1.0 SW 63 87 34 47 1010.8 1011.1 6.0
02/11:49am 5.4 -2.1 3.4 87 0.8 SW 32 96 17 52 1010.6 1010.9 5.6
02/11:48am 5.8 -1.1 2.8 81 1.3 SW 28 80 15 43 1010.6 1010.9 5.6
02/11:40am 6.6 -4.9 2.5 75 1.7 SW 52 96 28 52 1010.5 1010.8 5.6
02/11:30am 6.3 -4.5 2.0 74 1.8 SW 48 91 26 49 1010.2 1010.5 5.4
02/11:29am 6.2 -3.8 2.1 75 1.7 SW 44 91 24 49 1010.2 1010.5 5.4
02/11:25am 6.3 -2.0 4.0 85 1.0 SW 37 82 20 44 1010.2 1010.5 5.4
02/11:18am 5.5 -5.3 4.0 90 0.6 SW 50 83 27 45 1010.3 1010.6 5.4
02/11:11am 4.7 -4.9 3.2 90 0.6 SW 43 87 23 47 1010.1 1010.4 5.4
02/11:00am 4.8 -2.2 3.9 94 0.4 WSW 30 69 16 37 1009.7 1010.1 5.2
02/10:59am 4.7 -2.0 3.8 94 0.4 WSW 28 69 15 37 1009.7 1010.1 5.0
02/10:55am 4.5 -1.4 3.8 95 0.3 WSW 24 78 13 42 1010.1 1010.4 4.6
02/10:49am 5.5 -2.0 4.2 91 0.6 SW 33 78 18 42 1009.6 1010.0 4.0
02/10:30am 5.0 -4.0 4.3 95 0.3 SW 41 74 22 40 1009.7 1010.1 3.8
02/10:09am 4.8 -2.0 3.3 90 0.6 SW 28 76 15 41 1009.2 1009.6 2.0
02/10:00am 5.2 0.9 3.2 87 0.8 WSW 15 56 8 30 1009.3 1009.7 1.2
02/09:30am 5.1 0.3 2.8 85 1.0 WSW 17 46 9 25 1008.4 1008.7 0.6
02/09:00am 5.7 1.8 1.4 74 1.7 WNW 11 56 6 30 1008.1 1008.4 -
02/08:30am 6.0 1.7 1.0 70 2.0 N 13 37 7 20 1007.9 1008.2 -
02/08:00am 5.9 1.2 1.2 72 1.9 NW 15 43 8 23 1007.1 1007.4 -
02/07:30am 5.8 0.8 1.3 73 1.8 WNW 17 54 9 29 1006.0 1006.3 -
02/07:00am 5.5 0.6 2.0 78 1.4 NW 17 44 9 24 1006.0 1006.3 -
02/06:30am 5.8 1.2 1.5 74 1.7 NW 15 48 8 26 1005.9 1006.2 -
02/06:00am 5.8 1.6 1.5 74 1.7 NW 13 57 7 31 1005.5 1005.8 -
02/05:30am 5.6 1.7 1.2 73 1.8 SSE 11 33 6 18 1005.4 1005.7 -
02/05:00am 5.6 1.3 1.2 73 1.8 W 13 39 7 21 1004.4 1004.7 -
02/04:30am 5.3 1.1 1.4 76 1.6 NW 13 46 7 25 1004.0 1004.3 -
02/04:00am 5.2 0.5 1.1 75 1.6 WNW 15 39 8 21 1003.9 1004.2 -
02/03:30am 5.3 1.5 1.6 77 1.5 WNW 11 33 6 18 1003.7 1004.0 -
02/03:00am 5.3 0.7 1.6 77 1.5 NW 15 39 8 21 1004.1 1004.4 0.2
02/02:30am 5.6 0.2 1.3 74 1.7 NNW 19 56 10 30 1003.8 1004.1 -
02/02:00am 5.7 0.4 1.6 75 1.7 WNW 19 72 10 39 1003.1 1003.4 -
02/01:30am 5.8 2.2 3.1 83 1.1 WNW 11 32 6 17 1003.3 1003.6 -
02/01:00am 5.3 0.6 3.0 85 1.0 WSW 17 50 9 27 1003.0 1003.3 -
02/12:30am 6.6 0.5 2.9 77 1.6 SW 24 69 13 37 1003.1 1003.4 -
02/12:00am 6.8 1.7 3.2 78 1.5 SW 19 65 10 35 1003.0 1003.3 -
 
Date/Time
EST
Temp
°C
App
Temp
°C
Dew
Point
Rel
Hum
%
Delta-T
°C
Wind Press
QNH
hPa
Press
MSL
hPa
Rain
since 9 am
mm
Dir
 
Spd
km/h
Gust
km/h
Spd
kts
Gust
kts
01/11:30pm 6.9 2.5 2.6 74 1.8 W 15 41 8 22 1003.5 1003.8 -
01/11:00pm 6.6 0.4 2.1 73 1.9 WNW 24 57 13 31 1003.1 1003.4 -
01/10:30pm 6.9 2.1 2.6 74 1.8 WNW 17 46 9 25 1003.6 1003.9 -
01/10:00pm 7.0 1.7 1.9 70 2.1 W 19 54 10 29 1003.1 1003.4 -
01/09:47pm 6.8 -0.9 2.1 72 2.0 WNW 32 69 17 37 1003.8 1004.1 -
01/09:30pm 6.7 0.6 3.0 77 1.6 WNW 24 61 13 33 1004.5 1004.8 -
01/09:29pm 6.7 1.0 3.1 78 1.5 WNW 22 61 12 33 1004.5 1004.8 -
01/09:00pm 6.4 1.8 3.9 84 1.1 WNW 17 37 9 20 1004.1 1004.4 -
01/08:30pm 6.2 2.1 4.2 87 0.9 WSW 15 43 8 23 1005.2 1005.5 -
01/08:00pm 6.6 -0.4 6.2 97 0.2 WSW 32 67 17 36 1004.9 1005.2 -
01/07:30pm 10.6 2.5 3.2 60 3.3 NW 35 57 19 31 1004.5 1004.8 0.0
01/07:00pm 10.4 0.7 3.0 60 3.3 NW 43 63 23 34 1004.0 1004.3 0.0
01/06:33pm 10.1 2.5 2.9 61 3.2 NNW 32 52 17 28 1004.4 1004.7 0.0
01/06:30pm 10.3 2.5 3.1 61 3.2 NNW 33 46 18 25 1004.3 1004.6 0.0
01/06:00pm 10.7 1.1 3.3 60 3.3 NW 43 65 23 35 1005.0 1005.3 0.0
01/05:30pm 10.3 0.6 3.8 64 2.9 NNW 44 69 24 37 1005.0 1005.3 0.0
01/05:00pm 10.3 1.2 4.2 66 2.8 NNW 41 65 22 35 1006.2 1006.5 0.0
01/04:42pm 9.9 2.1 4.7 70 2.4 NNW 35 54 19 29 1006.7 1007.0 0.0
01/04:30pm 10.1 2.3 4.7 69 2.5 NNW 35 48 19 26 1007.0 1007.3 0.0
01/04:00pm 10.0 3.1 4.8 70 2.4 NW 30 43 16 23 1007.7 1008.0 0.0
01/03:35pm 10.4 3.1 4.5 67 2.7 NNW 32 54 17 29 1008.2 1008.5 0.0
01/03:30pm 9.7 2.5 4.9 72 2.2 NNW 32 46 17 25 1008.4 1008.7 0.0
01/03:11pm 10.6 4.1 4.5 66 2.8 NW 28 46 15 25 1008.6 1008.9 0.0
01/03:00pm 10.3 4.9 4.5 67 2.6 NW 22 43 12 23 1009.1 1009.5 0.0
01/02:30pm 10.3 4.2 4.9 69 2.5 NNW 26 46 14 25 1009.5 1009.9 0.0
01/02:00pm 9.9 2.5 4.9 71 2.3 NNW 33 52 18 28 1010.2 1010.5 0.0
01/01:30pm 9.8 2.4 4.8 71 2.3 N 33 56 18 30 1011.0 1011.3 0.0
01/01:00pm 9.9 3.4 4.5 69 2.4 N 28 46 15 25 1011.7 1012.0 0.0
01/12:55pm 10.4 3.7 3.7 63 3.0 NNW 28 46 15 25 1011.9 1012.2 0.0
01/12:30pm 10.0 3.0 4.2 67 2.6 N 30 46 16 25 1012.7 1013.1 0.0
01/12:00pm 10.9 3.5 3.9 62 3.1 NNW 32 43 17 23 1013.5 1013.9 0.0
01/11:30am 10.4 4.3 5.0 69 2.5 N 26 39 14 21 1014.7 1015.0 0.0
01/11:00am 10.3 3.7 4.2 66 2.7 NNW 28 39 15 21 1015.4 1015.7 0.0
01/10:30am 10.0 3.3 3.7 65 2.8 N 28 41 15 22 1016.3 1016.7 0.0
01/10:00am 10.0 4.1 3.7 65 2.8 NW 24 33 13 18 1017.0 1017.4 0.0
01/09:30am 10.2 3.5 3.5 63 3.0 NW 28 39 15 21 1017.4 1017.7 0.0
01/09:00am 9.6 3.3 3.6 66 2.6 NW 26 37 14 20 1017.8 1018.1 0.0
01/08:30am 9.3 3.7 3.5 67 2.5 NW 22 32 12 17 1018.1 1018.4 0.0
01/08:00am 8.7 3.4 3.1 68 2.4 NNW 20 33 11 18 1018.1 1018.4 0.0
01/07:30am 7.6 2.3 2.9 72 2.0 NNW 20 32 11 17 1018.4 1018.8 0.0
01/07:00am 7.6 2.2 2.7 71 2.1 N 20 35 11 19 1018.5 1018.9 0.0
01/06:30am 7.3 1.9 2.6 72 2.0 N 20 33 11 18 1018.7 1019.1 0.0
01/06:00am 7.6 1.8 2.3 69 2.2 NNW 22 33 12 18 1019.2 1019.5 0.0
01/05:30am 7.6 2.2 2.5 70 2.2 NW 20 30 11 16 1019.3 1019.6 0.0
01/05:00am 7.5 2.1 2.2 69 2.2 NW 20 32 11 17 1019.6 1019.9 0.0
01/04:30am 7.4 1.6 2.3 70 2.1 NNW 22 37 12 20 1019.7 1020.0 0.0
01/04:00am 7.8 3.0 2.7 70 2.2 NNW 17 30 9 16 1020.0 1020.3 0.0
01/03:30am 7.9 3.1 2.6 69 2.2 NNW 17 26 9 14 1020.4 1020.7 0.0
01/03:00am 7.6 2.8 2.5 70 2.1 NNW 17 26 9 14 1020.7 1021.0 0.0
01/02:30am 8.1 3.3 2.6 68 2.3 NW 17 24 9 13 1021.0 1021.3 0.0
01/02:00am 8.4 3.3 2.8 68 2.4 NW 19 28 10 15 1021.1 1021.4 0.0
01/01:30am 8.5 3.4 2.9 68 2.4 NW 19 26 10 14 1021.3 1021.6 0.0
01/01:00am 8.8 3.5 3.0 67 2.5 NW 20 32 11 17 1021.6 1021.9 0.0
01/12:30am 9.2 3.6 3.2 66 2.6 WNW 22 32 12 17 1021.7 1022.0 0.0
01/12:00am 8.2 3.6 3.5 72 2.0 NNW 17 30 9 16 1022.0 1022.4 0.0
 
Date/Time
EST
Temp
°C
App
Temp
°C
Dew
Point
Rel
Hum
%
Delta-T
°C
Wind Press
QNH
hPa
Press
MSL
hPa
Rain
since 9 am
mm
Dir
 
Spd
km/h
Gust
km/h
Spd
kts
Gust
kts
30/11:30pm 8.8 4.1 3.2 68 2.4 NW 17 28 9 15 1022.2 1022.6 0.0
30/11:00pm 9.2 3.9 3.2 66 2.6 NW 20 30 11 16 1022.5 1022.9 0.0
30/10:30pm 9.1 4.0 3.3 67 2.5 NW 19 30 10 16 1022.5 1022.9 0.0
30/10:00pm 9.3 4.6 3.1 65 2.7 NNW 17 28 9 15 1022.7 1023.1 0.0
30/09:30pm 9.4 4.7 3.2 65 2.7 WNW 17 26 9 14 1022.9 1023.3 0.0
30/09:00pm 9.2 4.9 3.4 67 2.5 NW 15 20 8 11 1023.2 1023.5 0.0
30/08:30pm 9.7 5.4 3.4 65 2.8 WNW 15 28 8 15 1023.2 1023.5 0.0
30/08:00pm 9.3 4.7 3.7 68 2.5 WNW 17 30 9 16 1023.2 1023.5 0.0
30/07:30pm 9.3 5.2 4.1 70 2.3 WNW 15 26 8 14 1023.2 1023.5 0.0
30/07:00pm 9.6 5.9 4.4 70 2.3 WNW 13 24 7 13 1022.9 1023.3 0.0
30/06:30pm 9.9 5.5 4.5 69 2.4 WNW 17 33 9 18 1022.8 1023.2 0.0
30/06:00pm 9.6 7.1 4.6 71 2.2 W 7 20 4 11 1023.0 1023.4 0.0
30/05:30pm 10.0 6.7 4.6 69 2.4 WNW 11 24 6 13 1022.6 1023.0 0.0
30/05:00pm 9.9 5.1 4.5 69 2.4 WNW 19 32 10 17 1022.5 1022.9 0.0
30/04:30pm 9.6 5.6 4.8 72 2.2 NW 15 20 8 11 1022.5 1022.9 0.0
30/04:00pm 10.4 7.9 4.8 68 2.5 NW 7 17 4 9 1022.5 1022.9 0.0
30/03:30pm 10.8 7.9 4.9 67 2.7 W 9 24 5 13 1022.4 1022.8 0.0
30/03:00pm 11.3 8.9 5.2 66 2.8 WNW 7 20 4 11 1022.2 1022.6 0.0
30/02:30pm 11.3 9.1 5.2 66 2.8 NE 6 20 3 11 1022.2 1022.6 0.0
30/02:00pm 11.8 9.7 5.9 67 2.8 ENE 6 19 3 10 1022.4 1022.8 0.0
30/01:30pm 11.1 7.9 5.2 67 2.7 W 11 24 6 13 1022.6 1023.0 0.0
30/01:00pm 11.4 9.1 5.5 67 2.7 W 7 20 4 11 1022.9 1023.3 0.0
30/12:30pm 10.7 7.9 5.0 68 2.6 W 9 22 5 12 1023.0 1023.4 0.0
30/12:00pm 10.9 7.7 5.2 68 2.6 WNW 11 24 6 13 1023.3 1023.6 0.0
30/11:30am 10.6 7.5 5.4 70 2.4 WNW 11 24 6 13 1023.6 1023.9 0.0
30/11:00am 10.8 8.5 4.9 67 2.7 WNW 6 22 3 12 1024.1 1024.4 0.0
30/10:30am 10.8 8.6 5.3 69 2.5 W 6 22 3 12 1024.2 1024.5 0.0
30/10:00am 10.4 8.2 5.4 71 2.3 WNW 6 20 3 11 1024.1 1024.4 0.0
30/09:30am 10.1 7.3 5.3 72 2.2 NNE 9 32 5 17 1023.6 1023.9 0.0
30/09:00am 9.5 4.7 4.9 73 2.1 W 19 33 10 18 1023.9 1024.2 -
30/08:30am 9.4 6.9 4.6 72 2.2 SSE 7 30 4 16 1023.7 1024.0 -
30/08:00am 9.1 6.2 4.7 74 2.0 E 9 28 5 15 1022.9 1023.3 -
30/07:30am 8.9 1.3 3.9 71 2.2 W 33 54 18 29 1022.7 1023.1 -
30/07:24am 9.0 2.4 4.2 72 2.1 W 28 48 15 26 1022.9 1023.3 -
30/07:00am 9.0 3.9 4.0 71 2.2 W 20 39 11 21 1023.3 1023.6 -
30/06:30am 9.0 5.5 3.4 68 2.4 WNW 11 30 6 16 1022.4 1022.8 -
30/06:10am 9.1 1.6 3.5 68 2.5 W 32 54 17 29 1022.2 1022.6 -
30/06:00am 9.0 1.5 3.6 69 2.4 W 32 43 17 23 1022.4 1022.8 -
30/05:30am 8.5 2.1 3.4 70 2.2 W 26 35 14 19 1022.4 1022.8 -
30/05:00am 8.6 4.6 3.0 68 2.4 WNW 13 30 7 16 1022.4 1022.8 -
30/04:30am 8.5 4.2 3.1 69 2.3 WNW 15 30 8 16 1022.3 1022.7 -
30/04:00am 8.6 4.3 3.2 69 2.3 WNW 15 32 8 17 1022.5 1022.9 -
30/03:30am 8.7 4.4 3.1 68 2.4 WNW 15 30 8 16 1022.6 1023.0 -
30/03:00am 8.6 3.9 3.0 68 2.4 WNW 17 30 9 16 1022.7 1023.1 0.0
30/02:30am 8.3 4.4 3.4 71 2.1 WNW 13 24 7 13 1022.7 1023.1 -
30/02:00am 8.6 5.1 3.4 70 2.3 WNW 11 24 6 13 1022.8 1023.2 -
30/01:30am 8.7 3.6 3.3 69 2.3 WNW 19 28 10 15 1023.0 1023.4 -
30/01:00am 8.9 3.3 3.7 70 2.3 NW 22 43 12 23 1022.7 1023.1 -
30/12:30am 9.2 3.3 4.0 70 2.3 NW 24 37 13 20 1022.7 1023.1 -
30/12:00am 9.1 4.0 4.3 72 2.1 W 20 35 11 19 1022.7 1023.1 -
 
Date/Time
EST
Temp
°C
App
Temp
°C
Dew
Point
Rel
Hum
%
Delta-T
°C
Wind Press
QNH
hPa
Press
MSL
hPa
Rain
since 9 am
mm
Dir
 
Spd
km/h
Gust
km/h
Spd
kts
Gust
kts
29/11:30pm 9.5 5.0 4.1 69 2.4 W 17 35 9 19 1022.8 1023.2 -
29/11:00pm 10.0 5.7 3.3 63 2.9 WNW 15 39 8 21 1023.0 1023.4 -
29/10:30pm 9.6 6.5 3.8 67 2.6 W 9 24 5 13 1023.2 1023.5 -
29/10:00pm 9.3 5.9 3.9 69 2.4 WNW 11 24 6 13 1023.3 1023.6 -
29/09:30pm 9.6 5.1 4.0 68 2.5 WNW 17 30 9 16 1023.6 1023.9 -
29/09:00pm 10.0 6.6 4.2 67 2.6 WNW 11 26 6 14 1023.6 1023.9 -
29/08:30pm 10.0 6.6 4.2 67 2.6 NW 11 20 6 11 1023.7 1024.0 -
29/08:00pm 10.4 7.0 4.1 65 2.8 WNW 11 24 6 13 1023.4 1023.7 -
29/07:30pm 10.9 7.9 3.9 62 3.1 WNW 9 30 5 16 1023.0 1023.4 -
29/07:00pm 11.0 7.3 4.2 63 3.1 WNW 13 35 7 19 1023.2 1023.5 -
29/06:30pm 10.7 7.0 4.2 64 2.9 WNW 13 24 7 13 1023.5 1023.8 -
29/06:00pm 11.1 6.2 4.1 62 3.2 WNW 19 35 10 19 1023.3 1023.6 -
29/05:30pm 11.3 7.2 4.5 63 3.1 WNW 15 24 8 13 1023.4 1023.7 -
29/05:00pm 11.1 8.5 4.3 63 3.1 NW 7 15 4 8 1023.3 1023.6 -
29/04:30pm 11.2 9.0 5.5 68 2.7 NNW 6 9 3 5 1023.2 1023.5 -
29/04:00pm 12.4 9.2 5.3 62 3.3 W 11 20 6 11 1023.3 1023.6 -
29/03:30pm 12.5 - 5.4 62 3.3 - - - - - 1023.0 1023.4 -

Other Formats:

Comma delimited format used in spreadsheet applications
http://www.bom.gov.au/fwo/IDT60801/IDT60801.95986.axf

JavaScript Object Notation format (JSON) in row-major order
http://www.bom.gov.au/fwo/IDT60801/IDT60801.95986.json